Ngurah Rai (Bali) International Airport

WADD · Bali, Indonesia

METAR history WADD · Ngurah Rai (Bali) International Airport

Below you see METARs of the last few days. Select a year to browse through older METARs, from the year 2007 onwards.

April 24, 2024

Time Code Weather Temp. Visibility Ceiling Wind METAR/SPECI
00:30
M
28 °C 8 km 1,600 ft 100° 100° 6 kt METAR WADD 231630Z 10006KT 8000 -RA FEW015CB BKN016 28/27 Q1009 RETS TEMPO TL1730 8000 -RA
00:00
M
28 °C 8 km 1,600 ft 100° 100° 7 kt METAR WADD 231600Z 10007KT 8000 -TSRA FEW015CB BKN016 28/27 Q1009 TEMPO TL1700 8000 -TSRA

April 23, 2024

Time Code Weather Temp. Visibility Ceiling Wind METAR/SPECI
23:30
M
28 °C 8 km 1,600 ft 100° 100° 8 kt METAR WADD 231530Z 10008KT 8000 -TSRA FEW015CB BKN016 28/27 Q1009 TEMPO TL1630 8000 -TSRA
23:00
M
28 °C 10 km+ 1,600 ft 100° 100° 8 kt METAR WADD 231500Z 10008KT 9999 TS FEW015CB BKN016 28/26 Q1009 TEMPO TL1600 TS
22:30
M
28 °C 10 km+ 1,600 ft 110° 110° 8 kt METAR WADD 231430Z 11008KT 9999 TS FEW015CB BKN016 28/27 Q1009 TEMPO TL1530 TS
22:00
M
28 °C 10 km+ 1,600 ft 110° 110° 10 kt METAR WADD 231400Z 11010KT 9999 FEW015CB BKN016 28/27 Q1009 NOSIG
21:30
M
29 °C 10 km+ 1,600 ft 110° 110° 9 kt METAR WADD 231330Z 11009KT 9999 FEW015CB BKN016 29/27 Q1009 NOSIG
21:00
M
29 °C 10 km+ 1,600 ft 110° 110° 9 kt METAR WADD 231300Z 11009KT 9999 FEW015CB BKN016 29/27 Q1009 NOSIG
20:30
M
28 °C 10 km+ 1,600 ft 110° 110° 8 kt METAR WADD 231230Z 11008KT 9999 FEW015CB BKN016 28/27 Q1009 NOSIG
20:00
M
28 °C 10 km+ 1,600 ft 100° 100° 8 kt METAR WADD 231200Z 10008KT 9999 FEW015CB BKN016 28/27 Q1008 NOSIG
19:30
V
28 °C 10 km+ - 120° 120° 10 kt METAR WADD 231130Z 12010KT 9999 FEW015CB SCT016 28/27 Q1007 NOSIG
19:00
V
28 °C 10 km+ - 120° 120° 10 kt METAR WADD 231100Z 12010KT 9999 FEW015CB SCT016 28/27 Q1007 RETS NOSIG
18:30
V
28 °C 10 km+ - 120° 120° 11 kt METAR WADD 231030Z 12011KT 9999 TS FEW015CB SCT016 28/27 Q1007 TEMPO TL1130 TS
18:00
V
29 °C 10 km+ - 130° 130° 10 kt METAR WADD 231000Z 13010KT 9999 TS FEW015CB SCT016 29/27 Q1007 TEMPO TL1100 TS
17:30
V
29 °C 10 km+ - 140° 140° 13 kt METAR WADD 230930Z 14013KT 9999 SCT016 29/27 Q1006 NOSIG
17:00
V
30 °C 10 km+ - 130° 130° 12 kt METAR WADD 230900Z 13012KT 9999 SCT016 30/27 Q1006 NOSIG
16:30
V
31 °C 10 km+ - 110° 110° 9 kt METAR WADD 230830Z 11009KT 9999 FEW016 31/27 Q1005 NOSIG
16:00
V
30 °C 10 km+ - 110° 110° 9 kt METAR WADD 230800Z 11009KT 9999 FEW016 30/26 Q1005 NOSIG
15:30
V
31 °C 10 km+ - 110° 110° 9 kt METAR WADD 230730Z 11009KT 9999 FEW016 31/27 Q1006 NOSIG
15:00
V
30 °C 10 km+ - 120° 120° 8 kt METAR WADD 230700Z 12008KT 9999 SCT016 30/27 Q1006 NOSIG
14:30
V
30 °C 10 km+ - 150° 150° 7 kt METAR WADD 230630Z 15007KT 9999 SCT016 30/27 Q1006 NOSIG
14:00
V
30 °C 10 km+ - 110° 110° 7 kt METAR WADD 230600Z 11007KT 9999 SCT016 30/27 Q1006 NOSIG
13:30
V
30 °C 10 km+ - 100° 100° 8 kt METAR WADD 230530Z 10008KT 9999 SCT016 30/27 Q1007 NOSIG
13:00
V
30 °C 10 km+ - 120° 120° 7 kt METAR WADD 230500Z 12007KT 9999 SCT016 30/27 Q1007 NOSIG
12:30
V
29 °C 10 km+ - 110° 110° 6 kt METAR WADD 230430Z 11006KT 9999 SCT016 29/27 Q1008 NOSIG
12:00
V
29 °C 10 km+ - 110° 110° 7 kt METAR WADD 230400Z 11007KT 9999 SCT016 29/27 Q1008 NOSIG
11:30
V
29 °C 10 km+ - 110° 110° 7 kt METAR WADD 230330Z 11007KT 9999 SCT016 29/27 Q1009 NOSIG
11:00
V
29 °C 10 km+ - 110° 110° 6 kt METAR WADD 230300Z 11006KT 9999 SCT016 29/27 Q1009 NOSIG
10:30
V
29 °C 10 km+ - 100° 100° 6 kt METAR WADD 230230Z 10006KT 9999 SCT016 29/27 Q1009 NOSIG
10:00
M
29 °C 10 km+ 1,500 ft 100° 100° 6 kt METAR WADD 230200Z 10006KT 9999 BKN015 29/27 Q1009 NOSIG
09:30
M
29 °C 10 km+ 1,600 ft 070° 070° 6 kt METAR WADD 230130Z 07006KT 010V100 9999 BKN016 29/27 Q1009 NOSIG
09:00
V
29 °C 10 km+ - 060° 060° 6 kt METAR WADD 230100Z 06006KT 9999 SCT017 29/27 Q1009 NOSIG
08:30
M
29 °C 10 km+ 1,600 ft 100° 100° 10 kt METAR WADD 230030Z 10010KT 9999 BKN016 29/27 Q1009 NOSIG
08:00
M
28 °C 10 km+ 1,600 ft 100° 100° 10 kt METAR WADD 230000Z 10010KT 9999 BKN016 28/26 Q1009 NOSIG
07:30
M
28 °C 10 km+ 1,600 ft 090° 090° 9 kt METAR WADD 222330Z 09009KT 9999 BKN016 28/26 Q1009 NOSIG
07:00
M
28 °C 10 km+ 1,600 ft 060° 060° 5 kt METAR WADD 222300Z 06005KT 020V090 9999 FEW015CB BKN016 28/27 Q1008 NOSIG
06:30
M
28 °C 10 km+ 1,500 ft 120° 120° 8 kt METAR WADD 222230Z 12008KT 9999 FEW014CB BKN015 28/27 Q1008 NOSIG
06:00
V
28 °C 10 km+ - 130° 130° 11 kt METAR WADD 222200Z 13011KT 9999 FEW015CB SCT016 28/27 Q1007 NOSIG
05:30
V
28 °C 10 km+ - 120° 120° 11 kt METAR WADD 222130Z 12011KT 9999 FEW015CB SCT016 28/27 Q1007 NOSIG
05:00
V
28 °C 10 km+ - 120° 120° 8 kt METAR WADD 222100Z 12008KT 9999 SCT017 28/27 Q1007 NOSIG
04:30
V
28 °C 10 km+ - 120° 120° 7 kt METAR WADD 222030Z 12007KT 9999 FEW017 28/27 Q1007 NOSIG
04:00
V
28 °C 10 km+ - 110° 110° 11 kt METAR WADD 222000Z 11011KT 9999 FEW017 28/26 Q1007 NOSIG
03:30
V
28 °C 10 km+ - 110° 110° 11 kt METAR WADD 221930Z 11011KT 9999 FEW017 28/26 Q1008 NOSIG
03:00
V
28 °C 10 km+ - 120° 120° 10 kt METAR WADD 221900Z 12010KT 9999 FEW017 28/26 Q1008 NOSIG
02:30
V
28 °C 10 km+ - 120° 120° 8 kt METAR WADD 221830Z 12008KT 9999 FEW017 28/26 Q1008 NOSIG
02:00
V
28 °C 10 km+ - 120° 120° 8 kt METAR WADD 221800Z 12008KT 9999 FEW017 28/26 Q1008
01:30
V
28 °C 10 km+ - 120° 120° 8 kt METAR WADD 221730Z 12008KT 9999 FEW017 28/27 Q1009 NOSIG
01:00
V
28 °C 10 km+ - 110° 110° 8 kt METAR WADD 221700Z 11008KT 9999 FEW017 28/27 Q1009 NOSIG
00:30
V
28 °C 10 km+ - 120° 120° 11 kt METAR WADD 221630Z 12011KT 9999 SCT016 28/27 Q1009 NOSIG
00:00
V
28 °C 10 km+ - 120° 120° 9 kt METAR WADD 221600Z 12009KT 9999 SCT016 28/27 Q1009 NOSIG

April 22, 2024

Time Code Weather Temp. Visibility Ceiling Wind METAR/SPECI
23:30
V
28 °C 10 km+ - 100° 100° 8 kt METAR WADD 221530Z 10008KT 9999 FEW015CB SCT016 28/27 Q1009 NOSIG RMK CB IN APCH
23:00
M
28 °C 6 km 1,400 ft 050° 050° 6 kt METAR WADD 221500Z 05006KT 6000 -RA BKN014 28/26 Q1009 TEMPO TL1530 -RA
22:30
V
28 °C 10 km+ - 080° 080° 6 kt METAR WADD 221430Z 08006KT 9999 SCT016 28/26 Q1009 NOSIG
22:00
V
28 °C 10 km+ - 080° 080° 6 kt METAR WADD 221400Z 08006KT 9999 SCT016 28/26 Q1009 NOSIG
21:30
M
28 °C 8 km 1,500 ft 080° 080° 4 kt METAR WADD 221330Z 08004KT 8000 BKN015 28/25 Q1009 RERA NOSIG
21:00
V
28 °C 10 km+ - 050° 050° 6 kt METAR WADD 221300Z 05006KT 9999 SCT016 28/26 Q1009 NOSIG
20:30
V
28 °C 10 km+ - 080° 080° 9 kt METAR WADD 221230Z 08009KT 9999 SCT016 28/26 Q1009 NOSIG
20:00
V
29 °C 10 km+ - 110° 110° 11 kt METAR WADD 221200Z 11011KT 9999 SCT016 29/27 Q1009 NOSIG
19:30
V
29 °C 10 km+ - 120° 120° 11 kt METAR WADD 221130Z 12011KT 9999 SCT016 29/27 Q1008 NOSIG
19:00
V
29 °C 10 km+ - 120° 120° 10 kt METAR WADD 221100Z 12010KT 9999 SCT016 29/27 Q1008 NOSIG
18:30
V
29 °C 10 km+ - 120° 120° 9 kt METAR WADD 221030Z 12009KT 9999 SCT016 29/26 Q1008 NOSIG
18:00
V
29 °C 10 km+ - 120° 120° 9 kt METAR WADD 221000Z 12009KT 9999 FEW015CB SCT016 29/26 Q1008 NOSIG
17:30
V
29 °C 10 km+ - 130° 130° 9 kt METAR WADD 220930Z 13009KT 9999 FEW015CB SCT016 29/26 Q1008 NOSIG
17:00
V
29 °C 10 km+ - 130° 130° 14 kt METAR WADD 220900Z 13014KT 9999 FEW015CB SCT016 29/26 Q1007 NOSIG
16:30
V
29 °C 10 km+ - 120° 120° 12 kt METAR WADD 220830Z 12012KT 9999 SCT016 29/26 Q1007 NOSIG
16:00
V
29 °C 10 km+ - 120° 120° 11 kt METAR WADD 220800Z 12011KT 9999 SCT016 29/26 Q1006 NOSIG
15:30
M
29 °C 10 km+ 1,500 ft 120° 120° 14 kt METAR WADD 220730Z 12014KT 9999 FEW015CB BKN015 29/27 Q1006 NOSIG
15:00
M
30 °C 10 km+ 1,500 ft 120° 120° 15 kt METAR WADD 220700Z 12015KT 9999 FEW015CB BKN015 30/26 Q1006 NOSIG RMK CB IN APCH
14:30
V
30 °C 10 km+ - 130° 130° 16 kt METAR WADD 220630Z 13016KT 9999 FEW015CB SCT016 30/27 Q1007 NOSIG RMK CB IN APCH
14:00
V
30 °C 10 km+ - 130° 130° 14 kt METAR WADD 220600Z 13014KT 9999 FEW015CB SCT016 30/26 Q1007 NOSIG
13:30
V
30 °C 10 km+ - 120° 120° 16 kt METAR WADD 220530Z 12016KT 9999 FEW015CB SCT016 30/27 Q1007 NOSIG
13:00
V
30 °C 10 km+ - 120° 120° 15 kt METAR WADD 220500Z 12015KT 9999 FEW015CB SCT016 30/27 Q1008 NOSIG
12:30
M
30 °C 10 km+ 1,500 ft 100° 100° 12 kt METAR WADD 220430Z 10012KT 9999 FEW015CB BKN015 30/28 Q1009 NOSIG
12:00
M
30 °C 10 km+ 1,600 ft 090° 090° 11 kt METAR WADD 220400Z 09011KT 9999 FEW015CB BKN016 30/28 Q1009 NOSIG
11:30
M
29 °C 10 km+ 1,600 ft 110° 110° 11 kt METAR WADD 220330Z 11011KT 9999 FEW015CB BKN016 29/28 Q1009 NOSIG
11:00
M
29 °C 10 km+ 1,600 ft 080° 080° 9 kt METAR WADD 220300Z 08009KT 9999 FEW015CB BKN016 29/28 Q1010 NOSIG
10:30
M
28 °C 10 km+ 1,500 ft 070° 070° 6 kt METAR WADD 220230Z 07006KT 9999 FEW015CB BKN015 28/27 Q1010 RERA NOSIG RMK CB IN APCH
10:00
M
28 °C 5 km 1,500 ft 080° 080° 12 kt METAR WADD 220200Z 08012KT 5000 -RA FEW015CB BKN015 28/27 Q1010 TEMPO TL0300 -RA RMK CB IN CLIMB-OUT
09:30
M
28 °C 10 km+ 1,500 ft 070° 070° 6 kt METAR WADD 220130Z 07006KT 030V110 9999 FEW015CB BKN015 28/28 Q1010 NOSIG RMK CB IN CLIMB-OUT
09:00
M
27 °C 5 km 1,500 ft 020° 020° 6 kt METAR WADD 220100Z 02006KT 5000 -RA FEW015CB BKN015 27/27 Q1010 TEMPO TL0200 -RA RMK CB IN APCH
08:30
M
27 °C 9 km 1,500 ft Var Var 2 kt METAR WADD 220030Z VRB02KT 9000 FEW015CB BKN015 27/27 Q1010 NOSIG RMK CB IN APCH
08:00
M
27 °C 10 km+ 1,500 ft 110° 110° 3 kt METAR WADD 220000Z 11003KT 9999 FEW015CB BKN015 27/26 Q1009 NOSIG
07:30
M
26 °C 6 km 1,500 ft 100° 100° 3 kt METAR WADD 212330Z 10003KT 6000 -RA FEW015CB BKN015 26/26 Q1009 TEMPO TL2430 -RA
07:00
M
26 °C 6 km 1,600 ft 080° 080° 5 kt METAR WADD 212300Z 08005KT 6000 -RA FEW015CB BKN016 26/26 Q1009 RETS TEMPO TL2400 6000 -RA
06:30
M
27 °C 6 km 1,600 ft 100° 100° 5 kt METAR WADD 212230Z 10005KT 6000 -TSRA FEW015CB BKN016 27/26 Q1008 TEMPO TL2330 6000 -TSRA RMK CB IN CLIMB-OUT
06:00
I
26 °C 3 km 1,600 ft 100° 100° 8 kt METAR WADD 212200Z 10008KT 3000 TSRA FEW015CB BKN016 26/26 Q1008 TEMPO TL2300 3000 TSRA RMK CB IN CLIMB-OUT
05:30
I
27 °C 2 km 1,600 ft 120° 120° 11 kt METAR WADD 212130Z 12011KT 2000 +TSRA FEW015CB BKN016 27/26 Q1008 TEMPO TL2230 2000 +TSRA RMK CB IN APCH
05:00
I
27 °C 4 km 1,600 ft 160° 160° 6 kt METAR WADD 212100Z 16006KT 090V200 4000 TSRA FEW015CB BKN016 27/26 Q1008 TEMPO TL2200 4000 TSRA
04:30
M
27 °C 8 km 1,600 ft 130° 130° 8 kt METAR WADD 212030Z 13008KT 020V160 8000 -TSRA FEW015CB BKN016 27/26 Q1008 TEMPO TL2130 8000 -TSRA
04:00
M
27 °C 8 km 1,600 ft 360° 360° 2 kt METAR WADD 212000Z 36002KT 8000 -TSRA FEW015CB BKN016 27/26 Q1008 TEMPO TL2100 8000 -TSRA
03:30
M
27 °C 6 km 1,600 ft 010° 010° 11 kt METAR WADD 211930Z 01011KT 010V080 6000 -TSRA FEW015CB BKN016 27/26 Q1008 TEMPO TL2030 6000 -TSRA
03:00
M
28 °C 6 km 1,600 ft 060° 060° 5 kt METAR WADD 211900Z 06005KT 020V110 6000 -TSRA FEW015CB BKN016 28/26 Q1008 TEMPO TL2000 6000 -TSRA
02:30
M
29 °C 10 km+ 1,600 ft 130° 130° 12 kt METAR WADD 211830Z 13012KT 9999 TS FEW015CB BKN016 29/27 Q1008 TEMPO TL1930 TS
02:00
M
29 °C 10 km+ 1,600 ft 130° 130° 9 kt METAR WADD 211800Z 13009KT 9999 FEW015CB BKN016 29/27 Q1009 NOSIG
01:30
V
29 °C 10 km+ - 130° 130° 9 kt METAR WADD 211730Z 13009KT 9999 FEW015CB SCT016 29/27 Q1009 NOSIG
01:00
V
29 °C 10 km+ - 120° 120° 10 kt METAR WADD 211700Z 12010KT 9999 FEW015CB SCT016 29/27 Q1009 NOSIG
00:30
V
29 °C 10 km+ - 130° 130° 8 kt METAR WADD 211630Z 13008KT 9999 FEW015CB SCT016 29/27 Q1010 NOSIG
00:00
V
29 °C 10 km+ - 130° 130° 9 kt METAR WADD 211600Z 13009KT 9999 FEW015CB SCT016 29/27 Q1010 NOSIG

April 21, 2024

Time Code Weather Temp. Visibility Ceiling Wind METAR/SPECI
23:30
V
29 °C 10 km+ - 130° 130° 10 kt METAR WADD 211530Z 13010KT 9999 FEW015CB SCT016 29/27 Q1010 NOSIG
23:00
V
29 °C 10 km+ - 120° 120° 9 kt METAR WADD 211500Z 12009KT 9999 FEW015CB SCT016 29/27 Q1010 NOSIG
22:30
V
29 °C 10 km+ - 130° 130° 10 kt METAR WADD 211430Z 13010KT 9999 SCT016 29/27 Q1010 NOSIG
22:00
V
29 °C 10 km+ - 120° 120° 7 kt METAR WADD 211400Z 12007KT 9999 SCT016 29/27 Q1010 NOSIG
21:30
V
29 °C 10 km+ - 120° 120° 9 kt METAR WADD 211330Z 12009KT 9999 FEW015CB SCT016 29/27 Q1010 NOSIG
21:00
V
29 °C 10 km+ - 130° 130° 8 kt METAR WADD 211300Z 13008KT 9999 FEW015CB SCT016 29/27 Q1009 NOSIG
20:30
V
29 °C 10 km+ - 120° 120° 11 kt METAR WADD 211230Z 12011KT 9999 FEW015CB SCT016 29/27 Q1009 NOSIG
20:00
V
29 °C 10 km+ - 130° 130° 9 kt METAR WADD 211200Z 13009KT 9999 FEW015CB SCT016 29/27 Q1009 NOSIG
19:30
V
29 °C 10 km+ - 130° 130° 10 kt METAR WADD 211130Z 13010KT 9999 FEW015CB SCT015 29/28 Q1009 NOSIG
18:30
V
29 °C 10 km+ - 130° 130° 10 kt METAR WADD 211030Z 13010KT 9999 SCT016 29/28 Q1008 NOSIG
18:00
V
29 °C 10 km+ - 130° 130° 10 kt METAR WADD 211000Z 13010KT 9999 SCT016 29/27 Q1008 NOSIG
17:30
V
30 °C 10 km+ - 130° 130° 14 kt METAR WADD 210930Z 13014KT 9999 SCT016 30/27 Q1008 NOSIG
17:00
V
30 °C 10 km+ - 130° 130° 13 kt METAR WADD 210900Z 13013KT 9999 SCT016 30/27 Q1007 NOSIG
16:30
V
30 °C 10 km+ - 130° 130° 13 kt METAR WADD 210830Z 13013KT 9999 SCT016 30/27 Q1007 NOSIG
16:00
V
31 °C 10 km+ - 110° 110° 12 kt METAR WADD 210800Z 11012KT 9999 SCT016 31/26 Q1007 NOSIG
15:30
V
31 °C 10 km+ - 120° 120° 13 kt METAR WADD 210730Z 12013KT 9999 SCT016 31/27 Q1007 NOSIG
15:00
V
31 °C 10 km+ - 120° 120° 12 kt METAR WADD 210700Z 12012KT 9999 FEW017 31/27 Q1007 NOSIG
14:30
V
30 °C 10 km+ - 130° 130° 15 kt METAR WADD 210630Z 13015KT 9999 SCT017 30/27 Q1007 NOSIG
14:00
V
31 °C 10 km+ - 120° 120° 13 kt METAR WADD 210600Z 12013KT 9999 FEW017 31/27 Q1007 NOSIG
Report a change